createdAt,value
2023-11-25T00:01:53.710Z,0
2023-11-25T00:06:53.688Z,0
2023-11-25T00:11:53.750Z,0
2023-11-25T00:16:53.770Z,0
2023-11-25T00:21:53.720Z,0
2023-11-25T00:26:53.711Z,0
2023-11-25T00:31:53.730Z,0
2023-11-25T00:36:53.716Z,0
2023-11-25T00:41:53.661Z,0
2023-11-25T00:46:54.947Z,0
2023-11-25T00:51:53.723Z,0
2023-11-25T00:56:53.699Z,0
2023-11-25T01:01:53.739Z,0
2023-11-25T01:06:53.715Z,0
2023-11-25T01:11:53.684Z,0
2023-11-25T01:16:53.745Z,0
2023-11-25T01:21:53.692Z,0
2023-11-25T01:26:53.685Z,0
2023-11-25T01:31:53.709Z,0
2023-11-25T01:36:53.732Z,0
2023-11-25T01:41:53.747Z,0
2023-11-25T01:46:53.739Z,0
2023-11-25T01:51:53.714Z,0
2023-11-25T01:56:53.722Z,0
2023-11-25T02:01:53.850Z,0
2023-11-25T02:06:53.757Z,0
2023-11-25T02:11:53.725Z,0
2023-11-25T02:16:53.777Z,0
2023-11-25T02:21:53.754Z,0
2023-11-25T02:26:53.702Z,0
2023-11-25T02:31:53.795Z,0
2023-11-25T02:36:53.709Z,0
2023-11-25T02:41:53.711Z,0
2023-11-25T02:46:53.737Z,0
2023-11-25T02:51:53.755Z,0
2023-11-25T02:56:53.733Z,0
2023-11-25T03:01:54.161Z,0
2023-11-25T03:06:53.723Z,0
2023-11-25T03:11:53.757Z,0
2023-11-25T03:16:53.814Z,0
2023-11-25T03:21:53.746Z,0
2023-11-25T03:26:53.731Z,0
2023-11-25T03:31:53.792Z,0
2023-11-25T03:36:53.778Z,0
2023-11-25T03:41:53.736Z,0
2023-11-25T03:46:53.762Z,0
2023-11-25T03:51:53.711Z,0
2023-11-25T03:56:53.754Z,0
2023-11-25T04:01:53.820Z,0
2023-11-25T04:06:53.773Z,0
2023-11-25T04:11:53.736Z,0
2023-11-25T04:16:53.753Z,0
2023-11-25T04:21:53.746Z,0
2023-11-25T04:26:53.781Z,0
2023-11-25T04:31:53.798Z,0
2023-11-25T04:36:53.823Z,0
2023-11-25T04:41:53.713Z,0
2023-11-25T04:46:53.750Z,0
2023-11-25T04:51:53.700Z,0
2023-11-25T04:56:53.750Z,0
2023-11-25T05:01:53.868Z,0
2023-11-25T05:06:53.747Z,0
2023-11-25T05:11:53.777Z,0
2023-11-25T05:16:53.863Z,0
2023-11-25T05:21:53.748Z,0
2023-11-25T05:26:53.748Z,0
2023-11-25T05:31:53.830Z,0
2023-11-25T05:36:53.734Z,0
2023-11-25T05:41:53.801Z,0
2023-11-25T05:46:53.794Z,0
2023-11-25T05:51:53.741Z,0
2023-11-25T05:56:54.040Z,0
2023-11-25T06:01:53.801Z,0
2023-11-25T06:06:53.738Z,0
2023-11-25T06:11:53.740Z,0
2023-11-25T06:16:53.774Z,0
2023-11-25T06:21:53.754Z,0
2023-11-25T06:26:53.798Z,0
2023-11-25T06:31:53.819Z,0
2023-11-25T06:36:53.793Z,0
2023-11-25T06:41:53.766Z,0
2023-11-25T06:46:53.843Z,0
2023-11-25T06:51:53.740Z,0
2023-11-25T06:56:54.013Z,267
2023-11-25T07:01:53.790Z,269
2023-11-25T07:06:53.756Z,270
2023-11-25T07:11:53.781Z,272
2023-11-25T07:16:53.781Z,275
2023-11-25T07:21:53.735Z,274
2023-11-25T07:26:53.874Z,277
2023-11-25T07:31:53.806Z,279
2023-11-25T07:36:53.754Z,282
2023-11-25T07:41:55.205Z,283
2023-11-25T07:46:53.783Z,286
2023-11-25T07:51:53.871Z,288
2023-11-25T07:56:53.777Z,286
2023-11-25T08:01:55.911Z,290
2023-11-25T08:06:53.760Z,293
2023-11-25T08:11:53.767Z,291
2023-11-25T08:16:54.088Z,296
2023-11-25T08:21:53.910Z,305
2023-11-25T08:26:53.854Z,302
2023-11-25T08:31:53.871Z,298
2023-11-25T08:36:54.057Z,302
2023-11-25T08:41:53.858Z,306
2023-11-25T08:46:53.793Z,312
2023-11-25T08:51:53.779Z,322
2023-11-25T08:56:53.858Z,295
2023-11-25T09:01:53.759Z,302
2023-11-25T09:06:53.786Z,304
2023-11-25T09:11:53.734Z,361
2023-11-25T09:16:53.847Z,294
2023-11-25T09:21:53.765Z,280
2023-11-25T09:26:53.751Z,299
2023-11-25T09:31:53.856Z,289
2023-11-25T09:36:53.771Z,281
2023-11-25T09:41:53.794Z,282
2023-11-25T09:46:53.795Z,283
2023-11-25T09:51:53.786Z,312
2023-11-25T09:56:53.803Z,292
2023-11-25T10:01:53.845Z,345
2023-11-25T10:06:53.771Z,320
2023-11-25T10:11:53.764Z,321
2023-11-25T10:16:53.805Z,294
2023-11-25T10:21:53.773Z,311
2023-11-25T10:26:53.822Z,325
2023-11-25T10:31:53.899Z,299
2023-11-25T10:36:53.750Z,319
2023-11-25T10:41:53.825Z,363
2023-11-25T10:46:53.782Z,321
2023-11-25T10:51:53.796Z,344
2023-11-25T10:56:53.818Z,335
2023-11-25T11:01:53.846Z,349
2023-11-25T11:06:53.880Z,316
2023-11-25T11:11:53.921Z,306
2023-11-25T11:16:53.815Z,323
2023-11-25T11:21:53.805Z,301
2023-11-25T11:26:53.778Z,291
2023-11-25T11:31:53.887Z,341
2023-11-25T11:36:53.783Z,289
2023-11-25T11:41:53.801Z,315
2023-11-25T11:46:53.859Z,301
2023-11-25T11:51:53.763Z,285
2023-11-25T11:56:53.795Z,281
2023-11-25T12:01:53.846Z,281
2023-11-25T12:06:53.749Z,294
2023-11-25T12:11:53.792Z,278
2023-11-25T12:16:53.852Z,279
2023-11-25T12:21:53.777Z,279
2023-11-25T12:26:53.797Z,277
2023-11-25T12:31:53.842Z,274
2023-11-25T12:36:53.793Z,274
2023-11-25T12:41:54.004Z,278
2023-11-25T12:46:53.788Z,272
2023-11-25T12:51:53.929Z,269
2023-11-25T12:56:54.068Z,274
2023-11-25T13:01:53.927Z,271
2023-11-25T13:06:54.046Z,274
2023-11-25T13:11:53.770Z,275
2023-11-25T13:16:53.826Z,272
2023-11-25T13:21:53.832Z,267
2023-11-25T13:26:53.864Z,266
2023-11-25T13:31:53.855Z,268
2023-11-25T13:36:53.790Z,267
2023-11-25T13:41:53.836Z,265
2023-11-25T13:46:53.872Z,268
2023-11-25T13:51:53.823Z,265
2023-11-25T13:56:53.815Z,265
2023-11-25T14:01:54.037Z,0
2023-11-25T14:06:53.799Z,265
2023-11-25T14:11:53.861Z,266
2023-11-25T14:16:53.922Z,0
2023-11-25T14:21:53.819Z,0
2023-11-25T14:26:53.857Z,0
2023-11-25T14:31:53.797Z,0
2023-11-25T14:36:53.832Z,0
2023-11-25T14:41:53.781Z,0
2023-11-25T14:46:53.884Z,265
2023-11-25T14:51:53.848Z,0
2023-11-25T14:56:53.851Z,0
2023-11-25T15:01:53.940Z,0
2023-11-25T15:06:53.921Z,0
2023-11-25T15:11:53.795Z,0
2023-11-25T15:16:53.781Z,0
2023-11-25T15:21:53.803Z,0
2023-11-25T15:26:53.856Z,0
2023-11-25T15:31:53.907Z,0
2023-11-25T15:36:53.823Z,0
2023-11-25T15:41:53.810Z,0
2023-11-25T15:46:53.876Z,0
2023-11-25T15:51:53.836Z,0
2023-11-25T15:56:53.868Z,0
2023-11-25T16:01:53.979Z,0
2023-11-25T16:06:56.850Z,0
2023-11-25T16:11:53.862Z,0
2023-11-25T16:16:53.821Z,0
2023-11-25T16:21:53.814Z,0
2023-11-25T16:26:53.851Z,0
2023-11-25T16:31:53.915Z,0
2023-11-25T16:36:53.841Z,0
2023-11-25T16:41:53.852Z,0
2023-11-25T16:46:53.846Z,0
2023-11-25T16:51:53.821Z,0
2023-11-25T16:56:53.884Z,0
2023-11-25T17:01:53.890Z,0
2023-11-25T17:06:53.804Z,0
2023-11-25T17:11:53.809Z,0
2023-11-25T17:16:53.926Z,0
2023-11-25T17:21:53.835Z,0
2023-11-25T17:26:53.816Z,0
2023-11-25T17:31:53.835Z,0
2023-11-25T17:36:53.863Z,0
2023-11-25T17:41:53.896Z,0
2023-11-25T17:46:53.909Z,0
2023-11-25T17:51:53.848Z,0
2023-11-25T17:56:53.873Z,0
2023-11-25T18:01:53.940Z,0
2023-11-25T18:06:53.824Z,0
2023-11-25T18:11:53.822Z,0
2023-11-25T18:16:53.839Z,0
2023-11-25T18:21:53.824Z,0
2023-11-25T18:26:53.853Z,0
2023-11-25T18:31:53.923Z,0
2023-11-25T18:36:53.833Z,0
2023-11-25T18:41:53.871Z,0
2023-11-25T18:46:53.954Z,0
2023-11-25T18:51:53.856Z,0
2023-11-25T18:56:53.826Z,0
2023-11-25T19:01:53.911Z,0
2023-11-25T19:06:53.840Z,0
2023-11-25T19:11:53.866Z,0
2023-11-25T19:16:53.926Z,0
2023-11-25T19:21:53.847Z,0
2023-11-25T19:26:53.828Z,0
2023-11-25T19:31:53.888Z,0
2023-11-25T19:36:53.943Z,0
2023-11-25T19:41:53.854Z,0
2023-11-25T19:46:53.909Z,0
2023-11-25T19:51:53.880Z,0
2023-11-25T19:56:53.815Z,0
2023-11-25T20:01:53.928Z,0
2023-11-25T20:06:53.875Z,0
2023-11-25T20:11:53.919Z,0
2023-11-25T20:16:53.943Z,0
2023-11-25T20:21:53.897Z,0
2023-11-25T20:26:53.875Z,0
2023-11-25T20:31:53.928Z,0
2023-11-25T20:36:53.933Z,0
2023-11-25T20:41:53.941Z,0
2023-11-25T20:46:53.873Z,0
2023-11-25T20:51:53.877Z,0
2023-11-25T20:56:53.850Z,0
2023-11-25T21:01:53.906Z,0
2023-11-25T21:06:53.920Z,0
2023-11-25T21:11:53.849Z,0
2023-11-25T21:16:53.875Z,0
2023-11-25T21:21:54.114Z,0
2023-11-25T21:26:53.832Z,0
2023-11-25T21:31:53.910Z,0
2023-11-25T21:36:53.850Z,0
2023-11-25T21:41:53.950Z,0
2023-11-25T21:46:53.969Z,0
2023-11-25T21:51:53.873Z,0
2023-11-25T21:56:54.114Z,0
2023-11-25T22:01:53.951Z,0
2023-11-25T22:06:53.910Z,0
2023-11-25T22:11:53.919Z,0
2023-11-25T22:16:53.898Z,0
2023-11-25T22:21:53.865Z,0
2023-11-25T22:26:53.877Z,0
2023-11-25T22:31:53.925Z,0
2023-11-25T22:36:54.082Z,0
2023-11-25T22:41:53.843Z,0
2023-11-25T22:46:53.890Z,0
2023-11-25T22:51:53.871Z,0
2023-11-25T22:56:53.885Z,0
2023-11-25T23:01:53.940Z,0
2023-11-25T23:06:53.890Z,0
2023-11-25T23:11:53.992Z,0
2023-11-25T23:16:53.977Z,0
2023-11-25T23:21:53.845Z,0
2023-11-25T23:26:53.853Z,0
2023-11-25T23:31:53.950Z,0
2023-11-25T23:36:53.848Z,0
2023-11-25T23:41:53.871Z,0
2023-11-25T23:46:53.979Z,0
2023-11-25T23:51:53.848Z,0
2023-11-25T23:56:53.913Z,0
